sensor_id;sensor_type;location;lat;lon;timestamp;P1;durP1;ratioP1;P2;durP2;ratioP2
41984;SDS011;28319;48.116;10.818;2022-07-18T00:00:54;2.10;;;1.90;;
41984;SDS011;28319;48.116;10.818;2022-07-18T00:03:21;2.30;;;2.10;;
41984;SDS011;28319;48.116;10.818;2022-07-18T00:05:48;1.98;;;1.88;;
41984;SDS011;28319;48.116;10.818;2022-07-18T00:08:15;2.72;;;2.10;;
41984;SDS011;28319;48.116;10.818;2022-07-18T00:10:43;2.20;;;2.00;;
41984;SDS011;28319;48.116;10.818;2022-07-18T00:13:11;2.33;;;2.13;;
41984;SDS011;28319;48.116;10.818;2022-07-18T00:15:39;1.67;;;1.67;;
41984;SDS011;28319;48.116;10.818;2022-07-18T00:18:06;2.35;;;2.15;;
41984;SDS011;28319;48.116;10.818;2022-07-18T00:20:33;1.88;;;1.77;;
41984;SDS011;28319;48.116;10.818;2022-07-18T00:23:00;2.03;;;1.85;;
41984;SDS011;28319;48.116;10.818;2022-07-18T00:25:28;2.22;;;2.13;;
41984;SDS011;28319;48.116;10.818;2022-07-18T00:27:55;2.10;;;2.00;;
41984;SDS011;28319;48.116;10.818;2022-07-18T00:30:23;2.20;;;2.10;;
41984;SDS011;28319;48.116;10.818;2022-07-18T00:32:50;2.25;;;2.10;;
41984;SDS011;28319;48.116;10.818;2022-07-18T00:35:17;1.95;;;1.85;;
41984;SDS011;28319;48.116;10.818;2022-07-18T00:37:45;2.20;;;2.10;;
41984;SDS011;28319;48.116;10.818;2022-07-18T00:40:12;2.10;;;2.00;;
41984;SDS011;28319;48.116;10.818;2022-07-18T00:42:39;2.78;;;2.58;;
41984;SDS011;28319;48.116;10.818;2022-07-18T00:45:07;2.30;;;2.10;;
41984;SDS011;28319;48.116;10.818;2022-07-18T00:47:37;2.47;;;2.13;;
41984;SDS011;28319;48.116;10.818;2022-07-18T00:50:04;2.10;;;2.00;;
41984;SDS011;28319;48.116;10.818;2022-07-18T00:52:32;2.20;;;2.10;;
41984;SDS011;28319;48.116;10.818;2022-07-18T00:54:59;2.22;;;2.13;;
41984;SDS011;28319;48.116;10.818;2022-07-18T00:57:26;2.88;;;2.00;;
41984;SDS011;28319;48.116;10.818;2022-07-18T00:59:54;2.22;;;2.10;;
41984;SDS011;28319;48.116;10.818;2022-07-18T01:02:40;2.10;;;2.00;;
41984;SDS011;28319;48.116;10.818;2022-07-18T01:05:07;2.13;;;2.03;;
41984;SDS011;28319;48.116;10.818;2022-07-18T01:07:35;2.30;;;2.10;;
41984;SDS011;28319;48.116;10.818;2022-07-18T01:10:03;2.22;;;2.00;;
41984;SDS011;28319;48.116;10.818;2022-07-18T01:12:31;2.00;;;1.90;;
41984;SDS011;28319;48.116;10.818;2022-07-18T01:14:58;2.50;;;2.15;;
41984;SDS011;28319;48.116;10.818;2022-07-18T01:17:26;2.30;;;2.17;;
41984;SDS011;28319;48.116;10.818;2022-07-18T01:19:54;3.63;;;2.08;;
41984;SDS011;28319;48.116;10.818;2022-07-18T01:22:23;2.53;;;2.42;;
41984;SDS011;28319;48.116;10.818;2022-07-18T01:24:50;3.28;;;2.08;;
41984;SDS011;28319;48.116;10.818;2022-07-18T01:27:18;2.45;;;2.25;;
41984;SDS011;28319;48.116;10.818;2022-07-18T01:29:47;3.08;;;2.15;;
41984;SDS011;28319;48.116;10.818;2022-07-18T01:32:15;2.10;;;2.00;;
41984;SDS011;28319;48.116;10.818;2022-07-18T01:34:44;2.10;;;2.00;;
41984;SDS011;28319;48.116;10.818;2022-07-18T01:37:12;3.30;;;2.10;;
41984;SDS011;28319;48.116;10.818;2022-07-18T01:39:42;3.10;;;2.22;;
41984;SDS011;28319;48.116;10.818;2022-07-18T01:42:10;2.60;;;2.38;;
41984;SDS011;28319;48.116;10.818;2022-07-18T01:44:38;2.75;;;2.50;;
41984;SDS011;28319;48.116;10.818;2022-07-18T01:47:07;2.55;;;2.35;;
41984;SDS011;28319;48.116;10.818;2022-07-18T01:49:36;3.58;;;2.17;;
41984;SDS011;28319;48.116;10.818;2022-07-18T01:52:04;2.45;;;2.28;;
41984;SDS011;28319;48.116;10.818;2022-07-18T01:54:32;2.42;;;2.30;;
41984;SDS011;28319;48.116;10.818;2022-07-18T01:57:02;2.20;;;2.10;;
41984;SDS011;28319;48.116;10.818;2022-07-18T01:59:31;2.30;;;2.20;;
41984;SDS011;28319;48.116;10.818;2022-07-18T02:01:58;2.10;;;2.00;;
41984;SDS011;28319;48.116;10.818;2022-07-18T02:04:25;2.33;;;2.13;;
41984;SDS011;28319;48.116;10.818;2022-07-18T02:07:06;3.90;;;2.33;;
41984;SDS011;28319;48.116;10.818;2022-07-18T02:09:33;2.53;;;2.33;;
41984;SDS011;28319;48.116;10.818;2022-07-18T02:12:02;2.28;;;2.08;;
41984;SDS011;28319;48.116;10.818;2022-07-18T02:14:29;2.40;;;2.30;;
41984;SDS011;28319;48.116;10.818;2022-07-18T02:16:57;2.40;;;2.20;;
41984;SDS011;28319;48.116;10.818;2022-07-18T02:19:24;2.03;;;1.93;;
41984;SDS011;28319;48.116;10.818;2022-07-18T02:21:51;8.83;;;2.17;;
41984;SDS011;28319;48.116;10.818;2022-07-18T02:24:18;2.30;;;2.20;;
41984;SDS011;28319;48.116;10.818;2022-07-18T02:26:46;2.47;;;2.37;;
41984;SDS011;28319;48.116;10.818;2022-07-18T02:29:14;2.40;;;2.30;;
41984;SDS011;28319;48.116;10.818;2022-07-18T02:31:41;2.20;;;2.10;;
41984;SDS011;28319;48.116;10.818;2022-07-18T02:34:09;3.73;;;2.20;;
41984;SDS011;28319;48.116;10.818;2022-07-18T02:36:36;2.80;;;2.60;;
41984;SDS011;28319;48.116;10.818;2022-07-18T02:39:04;2.30;;;2.20;;
41984;SDS011;28319;48.116;10.818;2022-07-18T02:41:32;2.10;;;2.00;;
41984;SDS011;28319;48.116;10.818;2022-07-18T02:43:59;2.00;;;1.90;;
41984;SDS011;28319;48.116;10.818;2022-07-18T02:46:28;2.13;;;2.00;;
41984;SDS011;28319;48.116;10.818;2022-07-18T02:48:55;2.03;;;1.93;;
41984;SDS011;28319;48.116;10.818;2022-07-18T02:51:22;1.90;;;1.80;;
41984;SDS011;28319;48.116;10.818;2022-07-18T02:53:50;2.70;;;2.50;;
41984;SDS011;28319;48.116;10.818;2022-07-18T02:56:16;2.20;;;2.10;;
41984;SDS011;28319;48.116;10.818;2022-07-18T02:58:44;2.20;;;2.10;;
41984;SDS011;28319;48.116;10.818;2022-07-18T03:01:11;1.80;;;1.70;;
41984;SDS011;28319;48.116;10.818;2022-07-18T03:03:40;2.20;;;2.10;;
41984;SDS011;28319;48.116;10.818;2022-07-18T03:06:07;2.40;;;2.20;;
41984;SDS011;28319;48.116;10.818;2022-07-18T03:08:34;4.23;;;2.30;;
41984;SDS011;28319;48.116;10.818;2022-07-18T03:11:01;2.40;;;2.20;;
41984;SDS011;28319;48.116;10.818;2022-07-18T03:13:28;2.20;;;2.10;;
41984;SDS011;28319;48.116;10.818;2022-07-18T03:15:55;1.97;;;1.87;;
41984;SDS011;28319;48.116;10.818;2022-07-18T03:18:23;2.47;;;2.10;;
41984;SDS011;28319;48.116;10.818;2022-07-18T03:20:52;2.60;;;2.40;;
41984;SDS011;28319;48.116;10.818;2022-07-18T03:23:19;2.10;;;2.00;;
41984;SDS011;28319;48.116;10.818;2022-07-18T03:25:46;2.10;;;2.00;;
41984;SDS011;28319;48.116;10.818;2022-07-18T03:28:14;2.43;;;2.33;;
41984;SDS011;28319;48.116;10.818;2022-07-18T03:30:41;3.07;;;2.60;;
41984;SDS011;28319;48.116;10.818;2022-07-18T03:33:08;2.27;;;2.17;;
41984;SDS011;28319;48.116;10.818;2022-07-18T03:35:35;2.30;;;2.20;;
41984;SDS011;28319;48.116;10.818;2022-07-18T03:38:04;2.40;;;2.20;;
41984;SDS011;28319;48.116;10.818;2022-07-18T03:40:31;2.47;;;2.27;;
41984;SDS011;28319;48.116;10.818;2022-07-18T03:42:58;3.20;;;2.60;;
41984;SDS011;28319;48.116;10.818;2022-07-18T03:45:25;3.03;;;2.20;;
41984;SDS011;28319;48.116;10.818;2022-07-18T03:47:53;2.50;;;2.30;;
41984;SDS011;28319;48.116;10.818;2022-07-18T03:50:20;3.20;;;2.40;;
41984;SDS011;28319;48.116;10.818;2022-07-18T03:52:48;2.60;;;2.40;;
41984;SDS011;28319;48.116;10.818;2022-07-18T03:55:16;2.83;;;2.47;;
41984;SDS011;28319;48.116;10.818;2022-07-18T03:57:44;2.40;;;2.13;;
41984;SDS011;28319;48.116;10.818;2022-07-18T04:00:11;2.43;;;2.23;;
41984;SDS011;28319;48.116;10.818;2022-07-18T04:02:40;2.47;;;2.27;;
41984;SDS011;28319;48.116;10.818;2022-07-18T04:05:08;2.70;;;2.50;;
41984;SDS011;28319;48.116;10.818;2022-07-18T04:07:36;2.87;;;2.60;;
41984;SDS011;28319;48.116;10.818;2022-07-18T04:10:04;2.60;;;2.40;;
41984;SDS011;28319;48.116;10.818;2022-07-18T04:12:34;2.30;;;2.20;;
41984;SDS011;28319;48.116;10.818;2022-07-18T04:15:11;2.60;;;2.40;;
41984;SDS011;28319;48.116;10.818;2022-07-18T04:17:39;2.40;;;2.20;;
41984;SDS011;28319;48.116;10.818;2022-07-18T04:20:06;2.50;;;2.40;;
41984;SDS011;28319;48.116;10.818;2022-07-18T04:22:43;3.20;;;2.90;;
41984;SDS011;28319;48.116;10.818;2022-07-18T04:25:11;4.53;;;2.97;;
41984;SDS011;28319;48.116;10.818;2022-07-18T04:27:39;2.70;;;2.50;;
41984;SDS011;28319;48.116;10.818;2022-07-18T04:30:07;3.40;;;2.63;;
41984;SDS011;28319;48.116;10.818;2022-07-18T04:32:35;3.03;;;2.70;;
41984;SDS011;28319;48.116;10.818;2022-07-18T04:35:03;3.83;;;2.97;;
41984;SDS011;28319;48.116;10.818;2022-07-18T04:37:31;4.73;;;4.13;;
41984;SDS011;28319;48.116;10.818;2022-07-18T04:39:59;2.90;;;2.70;;
41984;SDS011;28319;48.116;10.818;2022-07-18T04:42:27;2.93;;;2.60;;
41984;SDS011;28319;48.116;10.818;2022-07-18T04:44:57;2.80;;;2.60;;
41984;SDS011;28319;48.116;10.818;2022-07-18T04:47:24;5.63;;;2.93;;
41984;SDS011;28319;48.116;10.818;2022-07-18T04:49:51;2.90;;;2.70;;
41984;SDS011;28319;48.116;10.818;2022-07-18T04:52:18;2.60;;;2.40;;
41984;SDS011;28319;48.116;10.818;2022-07-18T04:54:46;2.90;;;2.70;;
41984;SDS011;28319;48.116;10.818;2022-07-18T04:57:13;4.33;;;2.90;;
41984;SDS011;28319;48.116;10.818;2022-07-18T04:59:40;4.67;;;2.77;;
41984;SDS011;28319;48.116;10.818;2022-07-18T05:02:10;2.93;;;2.70;;
41984;SDS011;28319;48.116;10.818;2022-07-18T05:04:37;3.77;;;3.00;;
41984;SDS011;28319;48.116;10.818;2022-07-18T05:07:05;2.63;;;2.43;;
41984;SDS011;28319;48.116;10.818;2022-07-18T05:09:33;2.73;;;2.50;;
41984;SDS011;28319;48.116;10.818;2022-07-18T05:12:00;3.37;;;3.00;;
41984;SDS011;28319;48.116;10.818;2022-07-18T05:14:28;2.90;;;2.70;;
41984;SDS011;28319;48.116;10.818;2022-07-18T05:16:55;3.10;;;2.77;;
41984;SDS011;28319;48.116;10.818;2022-07-18T05:19:23;3.38;;;2.85;;
41984;SDS011;28319;48.116;10.818;2022-07-18T05:21:51;2.70;;;2.50;;
41984;SDS011;28319;48.116;10.818;2022-07-18T05:24:18;2.47;;;2.37;;
41984;SDS011;28319;48.116;10.818;2022-07-18T05:26:45;2.92;;;2.72;;
41984;SDS011;28319;48.116;10.818;2022-07-18T05:29:12;3.28;;;2.97;;
41984;SDS011;28319;48.116;10.818;2022-07-18T05:31:40;3.17;;;2.95;;
41984;SDS011;28319;48.116;10.818;2022-07-18T05:34:07;4.00;;;2.92;;
41984;SDS011;28319;48.116;10.818;2022-07-18T05:36:35;2.90;;;2.70;;
41984;SDS011;28319;48.116;10.818;2022-07-18T05:39:02;2.70;;;2.50;;
41984;SDS011;28319;48.116;10.818;2022-07-18T05:41:30;5.00;;;3.20;;
41984;SDS011;28319;48.116;10.818;2022-07-18T05:43:57;6.30;;;3.22;;
41984;SDS011;28319;48.116;10.818;2022-07-18T05:46:25;2.72;;;2.58;;
41984;SDS011;28319;48.116;10.818;2022-07-18T05:48:52;3.22;;;2.75;;
41984;SDS011;28319;48.116;10.818;2022-07-18T05:51:20;2.75;;;2.53;;
41984;SDS011;28319;48.116;10.818;2022-07-18T05:53:49;2.78;;;2.55;;
41984;SDS011;28319;48.116;10.818;2022-07-18T05:56:16;3.03;;;2.42;;
41984;SDS011;28319;48.116;10.818;2022-07-18T05:58:44;2.60;;;2.40;;
41984;SDS011;28319;48.116;10.818;2022-07-18T06:01:10;2.90;;;2.70;;
41984;SDS011;28319;48.116;10.818;2022-07-18T06:03:41;4.88;;;2.70;;
41984;SDS011;28319;48.116;10.818;2022-07-18T06:06:09;2.47;;;2.38;;
41984;SDS011;28319;48.116;10.818;2022-07-18T06:08:36;2.90;;;2.70;;
41984;SDS011;28319;48.116;10.818;2022-07-18T06:11:05;9.63;;;3.00;;
41984;SDS011;28319;48.116;10.818;2022-07-18T06:13:34;4.05;;;2.80;;
41984;SDS011;28319;48.116;10.818;2022-07-18T06:16:02;4.47;;;2.97;;
41984;SDS011;28319;48.116;10.818;2022-07-18T06:18:30;5.53;;;3.30;;
41984;SDS011;28319;48.116;10.818;2022-07-18T06:20:57;4.00;;;3.13;;
41984;SDS011;28319;48.116;10.818;2022-07-18T06:23:24;3.53;;;3.22;;
41984;SDS011;28319;48.116;10.818;2022-07-18T06:25:51;4.93;;;3.08;;
41984;SDS011;28319;48.116;10.818;2022-07-18T06:28:20;2.65;;;2.45;;
41984;SDS011;28319;48.116;10.818;2022-07-18T06:30:47;3.10;;;2.90;;
41984;SDS011;28319;48.116;10.818;2022-07-18T06:33:14;4.88;;;2.80;;
41984;SDS011;28319;48.116;10.818;2022-07-18T06:35:41;3.00;;;2.80;;
41984;SDS011;28319;48.116;10.818;2022-07-18T06:38:08;3.30;;;3.00;;
41984;SDS011;28319;48.116;10.818;2022-07-18T06:40:36;6.45;;;3.10;;
41984;SDS011;28319;48.116;10.818;2022-07-18T06:43:03;3.38;;;3.08;;
41984;SDS011;28319;48.116;10.818;2022-07-18T06:45:32;3.40;;;2.97;;
41984;SDS011;28319;48.116;10.818;2022-07-18T06:47:59;2.90;;;2.63;;
41984;SDS011;28319;48.116;10.818;2022-07-18T06:50:26;4.50;;;2.97;;
41984;SDS011;28319;48.116;10.818;2022-07-18T06:52:54;3.95;;;2.83;;
41984;SDS011;28319;48.116;10.818;2022-07-18T06:55:21;2.70;;;2.50;;
41984;SDS011;28319;48.116;10.818;2022-07-18T06:57:48;2.50;;;2.30;;
41984;SDS011;28319;48.116;10.818;2022-07-18T07:00:15;2.70;;;2.50;;
41984;SDS011;28319;48.116;10.818;2022-07-18T07:02:45;2.60;;;2.40;;
41984;SDS011;28319;48.116;10.818;2022-07-18T07:05:12;2.78;;;2.38;;
41984;SDS011;28319;48.116;10.818;2022-07-18T07:07:41;5.00;;;2.63;;
41984;SDS011;28319;48.116;10.818;2022-07-18T07:10:08;4.07;;;2.58;;
41984;SDS011;28319;48.116;10.818;2022-07-18T07:12:39;5.65;;;2.88;;
41984;SDS011;28319;48.116;10.818;2022-07-18T07:15:07;4.35;;;2.30;;
41984;SDS011;28319;48.116;10.818;2022-07-18T07:17:35;3.15;;;2.92;;
41984;SDS011;28319;48.116;10.818;2022-07-18T07:20:05;3.40;;;3.10;;
41984;SDS011;28319;48.116;10.818;2022-07-18T07:22:40;6.57;;;3.25;;
41984;SDS011;28319;48.116;10.818;2022-07-18T07:25:08;4.30;;;2.97;;
41984;SDS011;28319;48.116;10.818;2022-07-18T07:27:35;5.47;;;2.90;;
41984;SDS011;28319;48.116;10.818;2022-07-18T07:30:03;3.72;;;2.47;;
41984;SDS011;28319;48.116;10.818;2022-07-18T07:32:33;2.80;;;2.42;;
41984;SDS011;28319;48.116;10.818;2022-07-18T07:35:01;7.93;;;2.58;;
41984;SDS011;28319;48.116;10.818;2022-07-18T07:37:31;2.70;;;2.50;;
41984;SDS011;28319;48.116;10.818;2022-07-18T07:39:59;2.40;;;2.20;;
41984;SDS011;28319;48.116;10.818;2022-07-18T07:42:26;2.05;;;1.95;;
41984;SDS011;28319;48.116;10.818;2022-07-18T07:44:53;2.70;;;2.50;;
41984;SDS011;28319;48.116;10.818;2022-07-18T07:47:20;2.42;;;2.22;;
41984;SDS011;28319;48.116;10.818;2022-07-18T07:49:47;2.55;;;2.45;;
41984;SDS011;28319;48.116;10.818;2022-07-18T07:52:16;3.55;;;2.22;;
41984;SDS011;28319;48.116;10.818;2022-07-18T07:54:43;2.40;;;2.25;;
41984;SDS011;28319;48.116;10.818;2022-07-18T07:57:11;2.13;;;2.00;;
41984;SDS011;28319;48.116;10.818;2022-07-18T07:59:38;2.67;;;2.05;;
41984;SDS011;28319;48.116;10.818;2022-07-18T08:02:05;2.30;;;2.20;;
41984;SDS011;28319;48.116;10.818;2022-07-18T08:04:32;4.75;;;2.30;;
41984;SDS011;28319;48.116;10.818;2022-07-18T08:07:00;1.92;;;1.83;;
41984;SDS011;28319;48.116;10.818;2022-07-18T08:09:29;3.13;;;2.00;;
41984;SDS011;28319;48.116;10.818;2022-07-18T08:11:56;5.95;;;2.92;;
41984;SDS011;28319;48.116;10.818;2022-07-18T08:14:23;2.25;;;2.05;;
41984;SDS011;28319;48.116;10.818;2022-07-18T08:16:51;2.15;;;1.95;;
41984;SDS011;28319;48.116;10.818;2022-07-18T08:19:18;2.72;;;1.73;;
41984;SDS011;28319;48.116;10.818;2022-07-18T08:21:45;3.17;;;1.80;;
41984;SDS011;28319;48.116;10.818;2022-07-18T08:24:12;2.45;;;2.25;;
41984;SDS011;28319;48.116;10.818;2022-07-18T08:26:41;4.22;;;1.80;;
41984;SDS011;28319;48.116;10.818;2022-07-18T08:29:08;2.10;;;1.83;;
41984;SDS011;28319;48.116;10.818;2022-07-18T08:31:36;1.85;;;1.75;;
41984;SDS011;28319;48.116;10.818;2022-07-18T08:34:03;2.00;;;1.90;;
41984;SDS011;28319;48.116;10.818;2022-07-18T08:36:30;6.93;;;1.83;;
41984;SDS011;28319;48.116;10.818;2022-07-18T08:38:57;2.35;;;1.92;;
41984;SDS011;28319;48.116;10.818;2022-07-18T08:41:25;2.10;;;1.90;;
41984;SDS011;28319;48.116;10.818;2022-07-18T08:43:55;1.70;;;1.60;;
41984;SDS011;28319;48.116;10.818;2022-07-18T08:46:22;3.50;;;1.70;;
41984;SDS011;28319;48.116;10.818;2022-07-18T08:48:51;3.08;;;1.80;;
41984;SDS011;28319;48.116;10.818;2022-07-18T08:51:20;3.85;;;1.80;;
41984;SDS011;28319;48.116;10.818;2022-07-18T08:53:48;4.47;;;1.77;;
41984;SDS011;28319;48.116;10.818;2022-07-18T08:56:17;1.88;;;1.77;;
41984;SDS011;28319;48.116;10.818;2022-07-18T08:58:44;2.33;;;1.70;;
41984;SDS011;28319;48.116;10.818;2022-07-18T09:01:13;1.48;;;1.40;;
41984;SDS011;28319;48.116;10.818;2022-07-18T09:03:40;3.10;;;1.60;;
41984;SDS011;28319;48.116;10.818;2022-07-18T09:06:08;2.72;;;1.60;;
41984;SDS011;28319;48.116;10.818;2022-07-18T09:08:37;1.70;;;1.60;;
41984;SDS011;28319;48.116;10.818;2022-07-18T09:11:08;10.35;;;1.98;;
41984;SDS011;28319;48.116;10.818;2022-07-18T09:13:37;1.48;;;1.48;;
41984;SDS011;28319;48.116;10.818;2022-07-18T09:16:06;1.58;;;1.55;;
41984;SDS011;28319;48.116;10.818;2022-07-18T09:18:36;17.20;;;1.70;;
41984;SDS011;28319;48.116;10.818;2022-07-18T09:21:05;1.30;;;1.30;;
41984;SDS011;28319;48.116;10.818;2022-07-18T09:23:34;2.58;;;1.40;;
41984;SDS011;28319;48.116;10.818;2022-07-18T09:26:02;1.73;;;1.50;;
41984;SDS011;28319;48.116;10.818;2022-07-18T09:28:30;1.50;;;1.40;;
41984;SDS011;28319;48.116;10.818;2022-07-18T09:31:21;1.30;;;1.30;;
41984;SDS011;28319;48.116;10.818;2022-07-18T09:33:55;1.60;;;1.48;;
41984;SDS011;28319;48.116;10.818;2022-07-18T09:36:24;4.57;;;1.48;;
41984;SDS011;28319;48.116;10.818;2022-07-18T09:38:51;1.45;;;1.27;;
41984;SDS011;28319;48.116;10.818;2022-07-18T09:41:21;1.48;;;1.38;;
41984;SDS011;28319;48.116;10.818;2022-07-18T09:43:49;1.60;;;1.50;;
41984;SDS011;28319;48.116;10.818;2022-07-18T09:46:16;1.50;;;1.40;;
41984;SDS011;28319;48.116;10.818;2022-07-18T09:48:43;1.95;;;1.50;;
41984;SDS011;28319;48.116;10.818;2022-07-18T09:51:12;1.85;;;1.45;;
41984;SDS011;28319;48.116;10.818;2022-07-18T09:53:40;1.85;;;1.45;;
41984;SDS011;28319;48.116;10.818;2022-07-18T09:56:09;3.42;;;1.55;;
41984;SDS011;28319;48.116;10.818;2022-07-18T09:58:38;1.80;;;1.50;;
41984;SDS011;28319;48.116;10.818;2022-07-18T10:01:06;2.05;;;1.50;;
41984;SDS011;28319;48.116;10.818;2022-07-18T10:03:37;1.48;;;1.38;;
41984;SDS011;28319;48.116;10.818;2022-07-18T10:06:05;1.35;;;1.30;;
41984;SDS011;28319;48.116;10.818;2022-07-18T10:08:34;4.07;;;1.40;;
41984;SDS011;28319;48.116;10.818;2022-07-18T10:11:03;1.65;;;1.55;;
41984;SDS011;28319;48.116;10.818;2022-07-18T10:13:32;1.58;;;1.48;;
41984;SDS011;28319;48.116;10.818;2022-07-18T10:16:01;2.95;;;1.30;;
41984;SDS011;28319;48.116;10.818;2022-07-18T10:18:29;1.35;;;1.35;;
41984;SDS011;28319;48.116;10.818;2022-07-18T10:20:59;1.13;;;1.13;;
41984;SDS011;28319;48.116;10.818;2022-07-18T10:23:31;1.58;;;1.48;;
41984;SDS011;28319;48.116;10.818;2022-07-18T10:26:05;1.63;;;1.40;;
41984;SDS011;28319;48.116;10.818;2022-07-18T10:28:34;1.55;;;1.45;;
41984;SDS011;28319;48.116;10.818;2022-07-18T10:31:11;1.27;;;1.27;;
41984;SDS011;28319;48.116;10.818;2022-07-18T10:33:41;1.50;;;1.40;;
41984;SDS011;28319;48.116;10.818;2022-07-18T10:36:12;1.52;;;1.42;;
41984;SDS011;28319;48.116;10.818;2022-07-18T10:41:32;1.25;;;1.15;;
41984;SDS011;28319;48.116;10.818;2022-07-18T10:43:59;2.67;;;1.30;;
41984;SDS011;28319;48.116;10.818;2022-07-18T10:49:37;1.85;;;1.48;;
41984;SDS011;28319;48.116;10.818;2022-07-18T10:55:28;4.40;;;1.50;;
41984;SDS011;28319;48.116;10.818;2022-07-18T10:58:15;1.50;;;1.42;;
41984;SDS011;28319;48.116;10.818;2022-07-18T11:00:47;1.40;;;1.30;;
41984;SDS011;28319;48.116;10.818;2022-07-18T11:03:18;1.38;;;1.35;;
41984;SDS011;28319;48.116;10.818;2022-07-18T11:05:53;1.30;;;1.20;;
41984;SDS011;28319;48.116;10.818;2022-07-18T11:08:21;3.00;;;1.10;;
41984;SDS011;28319;48.116;10.818;2022-07-18T11:11:11;1.30;;;1.20;;
41984;SDS011;28319;48.116;10.818;2022-07-18T11:13:43;1.30;;;1.30;;
41984;SDS011;28319;48.116;10.818;2022-07-18T11:16:16;2.38;;;1.20;;
41984;SDS011;28319;48.116;10.818;2022-07-18T11:21:44;1.52;;;1.42;;
41984;SDS011;28319;48.116;10.818;2022-07-18T11:24:12;1.42;;;1.33;;
41984;SDS011;28319;48.116;10.818;2022-07-18T11:26:44;2.20;;;1.42;;
41984;SDS011;28319;48.116;10.818;2022-07-18T11:29:13;1.45;;;1.35;;
41984;SDS011;28319;48.116;10.818;2022-07-18T11:31:44;1.30;;;1.20;;
41984;SDS011;28319;48.116;10.818;2022-07-18T11:34:12;2.05;;;1.50;;
41984;SDS011;28319;48.116;10.818;2022-07-18T11:36:41;1.83;;;1.20;;
41984;SDS011;28319;48.116;10.818;2022-07-18T11:39:10;1.60;;;1.50;;
41984;SDS011;28319;48.116;10.818;2022-07-18T11:41:39;3.42;;;1.30;;
41984;SDS011;28319;48.116;10.818;2022-07-18T11:44:16;1.45;;;1.30;;
41984;SDS011;28319;48.116;10.818;2022-07-18T11:46:46;1.38;;;1.30;;
41984;SDS011;28319;48.116;10.818;2022-07-18T11:49:14;9.18;;;1.45;;
41984;SDS011;28319;48.116;10.818;2022-07-18T11:51:42;1.67;;;1.58;;
41984;SDS011;28319;48.116;10.818;2022-07-18T11:54:10;3.60;;;1.40;;
41984;SDS011;28319;48.116;10.818;2022-07-18T11:56:44;2.78;;;1.42;;
41984;SDS011;28319;48.116;10.818;2022-07-18T11:59:13;1.92;;;1.35;;
41984;SDS011;28319;48.116;10.818;2022-07-18T12:01:43;1.58;;;1.48;;
41984;SDS011;28319;48.116;10.818;2022-07-18T12:04:15;2.97;;;1.33;;
41984;SDS011;28319;48.116;10.818;2022-07-18T12:06:44;1.50;;;1.40;;
41984;SDS011;28319;48.116;10.818;2022-07-18T12:09:11;1.40;;;1.40;;
41984;SDS011;28319;48.116;10.818;2022-07-18T12:11:51;3.10;;;1.40;;
41984;SDS011;28319;48.116;10.818;2022-07-18T12:14:20;1.40;;;1.30;;
41984;SDS011;28319;48.116;10.818;2022-07-18T12:16:48;1.20;;;1.20;;
41984;SDS011;28319;48.116;10.818;2022-07-18T12:19:31;2.10;;;1.50;;
41984;SDS011;28319;48.116;10.818;2022-07-18T12:22:04;2.88;;;1.30;;
41984;SDS011;28319;48.116;10.818;2022-07-18T12:24:34;1.45;;;1.35;;
41984;SDS011;28319;48.116;10.818;2022-07-18T12:27:13;2.35;;;1.30;;
41984;SDS011;28319;48.116;10.818;2022-07-18T12:32:46;3.80;;;1.33;;
41984;SDS011;28319;48.116;10.818;2022-07-18T12:35:16;4.28;;;1.40;;
41984;SDS011;28319;48.116;10.818;2022-07-18T12:37:52;1.80;;;1.70;;
41984;SDS011;28319;48.116;10.818;2022-07-18T12:40:24;1.95;;;1.52;;
41984;SDS011;28319;48.116;10.818;2022-07-18T12:43:02;1.55;;;1.45;;
41984;SDS011;28319;48.116;10.818;2022-07-18T12:45:32;3.17;;;1.40;;
41984;SDS011;28319;48.116;10.818;2022-07-18T12:48:00;1.30;;;1.30;;
41984;SDS011;28319;48.116;10.818;2022-07-18T12:50:27;1.65;;;1.45;;
41984;SDS011;28319;48.116;10.818;2022-07-18T12:52:54;2.78;;;1.73;;
41984;SDS011;28319;48.116;10.818;2022-07-18T12:55:23;1.60;;;1.50;;
41984;SDS011;28319;48.116;10.818;2022-07-18T12:57:49;1.40;;;1.30;;
41984;SDS011;28319;48.116;10.818;2022-07-18T13:00:17;2.80;;;1.40;;
41984;SDS011;28319;48.116;10.818;2022-07-18T13:02:46;3.03;;;1.30;;
41984;SDS011;28319;48.116;10.818;2022-07-18T13:05:13;1.40;;;1.40;;
41984;SDS011;28319;48.116;10.818;2022-07-18T13:07:40;1.52;;;1.45;;
41984;SDS011;28319;48.116;10.818;2022-07-18T13:10:08;1.60;;;1.50;;
41984;SDS011;28319;48.116;10.818;2022-07-18T13:12:35;4.40;;;1.50;;
41984;SDS011;28319;48.116;10.818;2022-07-18T13:15:02;1.70;;;1.55;;
41984;SDS011;28319;48.116;10.818;2022-07-18T13:17:30;4.40;;;1.85;;
41984;SDS011;28319;48.116;10.818;2022-07-18T13:19:59;3.60;;;1.58;;
41984;SDS011;28319;48.116;10.818;2022-07-18T13:22:26;1.58;;;1.48;;
41984;SDS011;28319;48.116;10.818;2022-07-18T13:24:55;1.58;;;1.50;;
41984;SDS011;28319;48.116;10.818;2022-07-18T13:27:22;1.58;;;1.45;;
41984;SDS011;28319;48.116;10.818;2022-07-18T13:29:49;4.47;;;1.50;;
41984;SDS011;28319;48.116;10.818;2022-07-18T13:32:16;3.25;;;1.33;;
41984;SDS011;28319;48.116;10.818;2022-07-18T13:34:43;1.33;;;1.33;;
41984;SDS011;28319;48.116;10.818;2022-07-18T13:37:12;3.28;;;1.58;;
41984;SDS011;28319;48.116;10.818;2022-07-18T13:39:39;1.45;;;1.35;;
41984;SDS011;28319;48.116;10.818;2022-07-18T13:42:06;1.70;;;1.55;;
41984;SDS011;28319;48.116;10.818;2022-07-18T13:44:34;4.25;;;1.30;;
41984;SDS011;28319;48.116;10.818;2022-07-18T13:47:01;1.73;;;1.50;;
41984;SDS011;28319;48.116;10.818;2022-07-18T13:49:28;2.50;;;1.80;;
41984;SDS011;28319;48.116;10.818;2022-07-18T13:51:55;1.40;;;1.30;;
41984;SDS011;28319;48.116;10.818;2022-07-18T13:54:24;1.30;;;1.20;;
41984;SDS011;28319;48.116;10.818;2022-07-18T13:56:51;1.52;;;1.50;;
41984;SDS011;28319;48.116;10.818;2022-07-18T13:59:18;4.68;;;1.30;;
41984;SDS011;28319;48.116;10.818;2022-07-18T14:01:45;1.60;;;1.50;;
41984;SDS011;28319;48.116;10.818;2022-07-18T14:04:12;1.73;;;1.63;;
41984;SDS011;28319;48.116;10.818;2022-07-18T14:06:39;1.90;;;1.80;;
41984;SDS011;28319;48.116;10.818;2022-07-18T14:09:06;2.78;;;1.70;;
41984;SDS011;28319;48.116;10.818;2022-07-18T14:11:37;5.95;;;2.10;;
41984;SDS011;28319;48.116;10.818;2022-07-18T14:14:04;4.10;;;1.48;;
41984;SDS011;28319;48.116;10.818;2022-07-18T14:16:32;1.40;;;1.40;;
41984;SDS011;28319;48.116;10.818;2022-07-18T14:18:59;2.42;;;1.40;;
41984;SDS011;28319;48.116;10.818;2022-07-18T14:21:26;1.50;;;1.25;;
41984;SDS011;28319;48.116;10.818;2022-07-18T14:23:53;1.70;;;1.33;;
41984;SDS011;28319;48.116;10.818;2022-07-18T14:26:20;2.72;;;1.83;;
41984;SDS011;28319;48.116;10.818;2022-07-18T14:28:48;4.35;;;1.50;;
41984;SDS011;28319;48.116;10.818;2022-07-18T14:31:16;5.97;;;1.40;;
41984;SDS011;28319;48.116;10.818;2022-07-18T14:33:43;2.28;;;1.52;;
41984;SDS011;28319;48.116;10.818;2022-07-18T14:36:10;2.83;;;1.30;;
41984;SDS011;28319;48.116;10.818;2022-07-18T14:38:37;3.70;;;2.00;;
41984;SDS011;28319;48.116;10.818;2022-07-18T14:41:05;2.83;;;2.08;;
41984;SDS011;28319;48.116;10.818;2022-07-18T14:43:32;1.70;;;1.60;;
41984;SDS011;28319;48.116;10.818;2022-07-18T14:46:01;1.45;;;1.35;;
41984;SDS011;28319;48.116;10.818;2022-07-18T14:48:28;1.75;;;1.63;;
41984;SDS011;28319;48.116;10.818;2022-07-18T14:50:55;4.43;;;1.52;;
41984;SDS011;28319;48.116;10.818;2022-07-18T14:53:22;3.75;;;1.52;;
41984;SDS011;28319;48.116;10.818;2022-07-18T14:55:50;2.55;;;1.55;;